createdAt,value
2022-11-26T00:05:43.002Z,6.93
2022-11-26T00:11:36.583Z,6.80
2022-11-26T00:17:30.099Z,6.00
2022-11-26T00:23:28.040Z,6.60
2022-11-26T00:29:21.548Z,6.40
2022-11-26T00:35:15.870Z,6.17
2022-11-26T00:41:16.939Z,6.10
2022-11-26T00:47:11.114Z,5.80
2022-11-26T00:53:05.375Z,6.27
2022-11-26T00:59:00.312Z,5.83
2022-11-26T01:04:53.947Z,6.03
2022-11-26T01:10:47.066Z,5.30
2022-11-26T01:16:42.737Z,6.37
2022-11-26T01:22:36.230Z,5.90
2022-11-26T01:28:29.762Z,5.57
2022-11-26T01:34:24.728Z,6.20
2022-11-26T01:40:55.214Z,5.60
2022-11-26T01:46:50.113Z,6.73
2022-11-26T01:52:45.113Z,5.70
2022-11-26T01:58:42.196Z,6.17
2022-11-26T02:04:39.244Z,5.03
2022-11-26T02:10:35.536Z,5.60
2022-11-26T02:16:45.423Z,6.20
2022-11-26T02:23:05.397Z,6.67
2022-11-26T02:29:08.121Z,6.90
2022-11-26T02:35:07.805Z,5.90
2022-11-26T02:41:02.088Z,5.70
2022-11-26T02:47:00.506Z,7.17
2022-11-26T02:52:58.765Z,7.30
2022-11-26T02:58:53.913Z,6.30
2022-11-26T03:04:50.403Z,6.80
2022-11-26T03:10:45.394Z,8.17
2022-11-26T03:16:38.994Z,6.63
2022-11-26T03:22:32.091Z,7.17
2022-11-26T03:28:27.019Z,6.80
2022-11-26T03:34:20.560Z,6.47
2022-11-26T03:40:17.034Z,7.27
2022-11-26T03:46:11.683Z,7.77
2022-11-26T03:52:05.748Z,9.00
2022-11-26T03:57:58.826Z,9.90
2022-11-26T04:03:53.735Z,10.20
2022-11-26T04:09:47.245Z,10.67
2022-11-26T04:15:40.351Z,9.93
2022-11-26T04:21:35.444Z,10.10
2022-11-26T04:27:29.113Z,10.20
2022-11-26T04:33:22.677Z,9.10
2022-11-26T04:39:17.208Z,8.80
2022-11-26T04:45:12.101Z,8.10
2022-11-26T04:51:05.890Z,7.87
2022-11-26T04:57:00.786Z,7.73
2022-11-26T05:02:54.488Z,7.97
2022-11-26T05:08:48.121Z,7.97
2022-11-26T05:14:42.577Z,7.67
2022-11-26T05:20:35.725Z,6.77
2022-11-26T05:26:29.241Z,7.67
2022-11-26T05:32:24.174Z,7.10
2022-11-26T05:38:17.261Z,7.50
2022-11-26T05:44:10.975Z,9.23
2022-11-26T05:50:06.452Z,8.77
2022-11-26T05:55:59.842Z,8.93
2022-11-26T06:01:53.473Z,6.97
2022-11-26T06:07:47.984Z,8.20
2022-11-26T06:13:41.440Z,6.77
2022-11-26T06:19:34.929Z,6.60
2022-11-26T06:25:29.867Z,6.20
2022-11-26T06:31:23.469Z,6.10
2022-11-26T06:37:17.144Z,6.23
2022-11-26T06:43:12.057Z,6.07
2022-11-26T06:49:07.479Z,6.00
2022-11-26T06:55:01.067Z,7.67
2022-11-26T07:00:55.737Z,6.57
2022-11-26T07:06:49.291Z,7.60
2022-11-26T07:12:42.393Z,7.00
2022-11-26T07:18:37.080Z,7.40
2022-11-26T07:24:30.700Z,8.03
2022-11-26T07:30:24.253Z,7.40
2022-11-26T07:36:20.539Z,8.23
2022-11-26T07:42:13.796Z,7.47
2022-11-26T07:48:11.517Z,7.67
2022-11-26T07:54:11.008Z,7.60
2022-11-26T08:00:04.619Z,8.27
2022-11-26T08:06:07.610Z,9.07
2022-11-26T08:12:02.264Z,9.00
2022-11-26T08:17:56.548Z,9.03
2022-11-26T08:23:49.998Z,9.30
2022-11-26T08:29:44.439Z,9.43
2022-11-26T08:36:05.005Z,9.90
2022-11-26T08:41:52.818Z,9.53
2022-11-26T08:47:47.701Z,10.00
2022-11-26T08:53:41.733Z,11.30
2022-11-26T08:59:34.929Z,11.20
2022-11-26T09:05:29.566Z,10.40
2022-11-26T09:11:22.733Z,10.63
2022-11-26T09:17:15.914Z,11.50
2022-11-26T09:23:10.978Z,9.50
2022-11-26T09:29:04.845Z,10.40
2022-11-26T09:34:57.949Z,10.87
2022-11-26T09:41:01.469Z,12.10
2022-11-26T09:47:12.162Z,11.50
2022-11-26T09:53:14.994Z,10.93
2022-11-26T09:59:15.130Z,12.10
2022-11-26T10:05:10.315Z,11.33
2022-11-26T10:11:11.796Z,11.53
2022-11-26T10:17:19.971Z,12.20
2022-11-26T10:23:21.894Z,12.90
2022-11-26T10:29:23.283Z,12.23
2022-11-26T10:35:19.879Z,12.07
2022-11-26T10:41:13.152Z,12.97
2022-11-26T10:47:25.297Z,11.93
2022-11-26T10:53:24.106Z,12.90
2022-11-26T10:59:22.136Z,12.00
2022-11-26T11:05:22.130Z,10.63
2022-11-26T11:11:22.271Z,11.60
2022-11-26T11:17:36.528Z,12.73
2022-11-26T11:24:00.072Z,11.63
2022-11-26T11:29:48.493Z,12.93
2022-11-26T11:35:42.509Z,11.07
2022-11-26T11:41:40.238Z,11.17
2022-11-26T11:47:39.419Z,11.60
2022-11-26T11:53:40.477Z,11.07
2022-11-26T12:00:09.654Z,11.10
2022-11-26T12:06:20.675Z,12.27
2022-11-26T12:12:22.584Z,13.30
2022-11-26T12:18:23.083Z,11.90
2022-11-26T12:24:26.423Z,12.27
2022-11-26T12:30:23.710Z,11.97
2022-11-26T12:36:23.178Z,10.83
2022-11-26T12:42:23.760Z,11.23
2022-11-26T12:48:29.178Z,11.87
2022-11-26T12:54:28.502Z,12.47
2022-11-26T13:00:31.376Z,13.50
2022-11-26T13:06:44.516Z,12.90
2022-11-26T13:12:48.463Z,12.07
2022-11-26T13:18:47.070Z,11.87
2022-11-26T13:25:00.007Z,11.90
2022-11-26T13:31:07.502Z,11.63
2022-11-26T13:37:25.810Z,11.70
2022-11-26T13:43:50.555Z,10.53
2022-11-26T13:49:50.072Z,11.10
2022-11-26T13:55:48.728Z,11.47
2022-11-26T14:01:42.836Z,13.37
2022-11-26T14:07:37.101Z,13.50
2022-11-26T14:13:32.154Z,13.67
2022-11-26T14:19:59.975Z,10.60
2022-11-26T14:25:53.564Z,12.23
2022-11-26T14:31:54.362Z,13.80
2022-11-26T14:37:53.515Z,14.83
2022-11-26T14:43:47.062Z,14.43
2022-11-26T14:49:46.541Z,14.83
2022-11-26T14:55:40.782Z,14.93
2022-11-26T15:01:34.132Z,13.87
2022-11-26T15:07:30.666Z,13.90
2022-11-26T15:13:27.933Z,13.43
2022-11-26T15:19:21.979Z,14.60
2022-11-26T15:25:20.848Z,13.70
2022-11-26T15:31:14.306Z,12.07
2022-11-26T15:37:07.310Z,13.27
2022-11-26T15:43:05.503Z,13.73
2022-11-26T15:49:01.957Z,14.23
2022-11-26T15:55:16.901Z,14.07
2022-11-26T16:01:18.907Z,14.80
2022-11-26T16:07:14.258Z,15.20
2022-11-26T16:13:18.318Z,14.50
2022-11-26T16:19:15.870Z,16.10
2022-11-26T16:25:22.707Z,15.70
2022-11-26T16:31:18.214Z,15.97
2022-11-26T16:37:21.961Z,17.13
2022-11-26T16:43:15.866Z,16.37
2022-11-26T16:49:11.460Z,16.10
2022-11-26T16:55:07.213Z,19.37
2022-11-26T17:01:00.764Z,15.80
2022-11-26T17:06:53.965Z,18.73
2022-11-26T17:12:50.054Z,17.60
2022-11-26T17:18:43.962Z,17.30
2022-11-26T17:24:38.035Z,18.77
2022-11-26T17:30:32.813Z,18.23
2022-11-26T17:36:26.042Z,17.57
2022-11-26T17:42:20.287Z,18.53
2022-11-26T17:48:15.378Z,17.63
2022-11-26T17:54:08.990Z,19.57
2022-11-26T18:00:02.453Z,17.67
2022-11-26T18:21:06.957Z,16.97
2022-11-26T18:27:00.922Z,19.80
2022-11-26T18:32:54.492Z,19.10
2022-11-26T18:38:49.680Z,20.30
2022-11-26T18:44:43.514Z,19.13
2022-11-26T18:50:38.110Z,17.47
2022-11-26T18:56:33.007Z,19.77
2022-11-26T19:02:26.807Z,19.57
2022-11-26T19:08:20.475Z,19.30
2022-11-26T19:14:16.572Z,20.13
2022-11-26T19:20:10.531Z,19.03
2022-11-26T19:26:06.799Z,21.23
2022-11-26T19:32:01.303Z,19.37
2022-11-26T19:37:54.948Z,19.03
2022-11-26T19:43:48.440Z,17.20
2022-11-26T19:49:43.523Z,19.57
2022-11-26T19:55:37.134Z,18.43
2022-11-26T20:01:32.658Z,19.77
2022-11-26T20:07:27.311Z,19.50
2022-11-26T20:13:20.985Z,18.43
2022-11-26T20:19:14.805Z,17.70
2022-11-26T20:25:14.105Z,17.60
2022-11-26T20:31:07.912Z,17.33
2022-11-26T20:37:02.230Z,17.47
2022-11-26T20:42:57.164Z,17.57
2022-11-26T20:48:50.816Z,17.90
2022-11-26T20:54:45.729Z,16.73
2022-11-26T21:00:43.373Z,17.70
2022-11-26T21:06:37.176Z,17.37
2022-11-26T21:12:30.859Z,20.47
2022-11-26T21:18:25.790Z,19.60
2022-11-26T21:24:20.367Z,18.17
2022-11-26T21:30:14.984Z,21.33
2022-11-26T21:36:18.352Z,17.23
2022-11-26T21:42:11.981Z,17.20
2022-11-26T21:48:05.856Z,16.63
2022-11-26T21:54:00.970Z,17.97
2022-11-26T21:59:54.453Z,14.07
2022-11-26T22:05:48.019Z,16.90
2022-11-26T22:11:44.931Z,16.43
2022-11-26T22:17:38.521Z,15.87
2022-11-26T22:23:32.354Z,15.50
2022-11-26T22:29:27.559Z,15.73
2022-11-26T22:35:21.239Z,15.33
2022-11-26T22:41:15.639Z,14.17
2022-11-26T22:47:10.660Z,14.37
2022-11-26T22:53:03.852Z,14.30
2022-11-26T22:58:57.637Z,13.17
2022-11-26T23:04:53.586Z,13.20
2022-11-26T23:10:48.366Z,12.00
2022-11-26T23:16:43.110Z,11.50
2022-11-26T23:22:38.096Z,11.87
2022-11-26T23:28:31.793Z,9.50
2022-11-26T23:34:25.411Z,12.13
2022-11-26T23:40:20.491Z,15.47
2022-11-26T23:46:17.151Z,16.27
2022-11-26T23:52:10.970Z,12.30
2022-11-26T23:58:05.898Z,12.00
